createdAt,value
2024-05-09T00:00:41.204Z,9.43
2024-05-09T00:03:10.188Z,8.80
2024-05-09T00:05:38.814Z,10.77
2024-05-09T00:08:06.433Z,10.35
2024-05-09T00:10:37.352Z,11.77
2024-05-09T00:13:10.412Z,9.27
2024-05-09T00:15:38.426Z,9.68
2024-05-09T00:18:09.468Z,9.48
2024-05-09T00:20:39.830Z,9.63
2024-05-09T00:25:37.982Z,9.55
2024-05-09T00:28:05.720Z,8.63
2024-05-09T00:30:35.956Z,9.35
2024-05-09T00:33:06.215Z,8.73
2024-05-09T00:35:34.176Z,10.20
2024-05-09T00:38:01.519Z,10.63
2024-05-09T00:40:39.169Z,10.00
2024-05-09T00:43:08.709Z,10.27
2024-05-09T00:45:36.007Z,9.75
2024-05-09T00:48:07.704Z,10.35
2024-05-09T00:50:38.160Z,9.15
2024-05-09T00:53:11.680Z,62.67
2024-05-09T00:55:39.656Z,33.30
2024-05-09T00:58:10.643Z,10.38
2024-05-09T01:00:40.297Z,9.75
2024-05-09T01:03:11.231Z,9.93
2024-05-09T01:05:40.463Z,10.45
2024-05-09T01:08:08.894Z,10.55
2024-05-09T01:10:37.008Z,9.93
2024-05-09T01:13:07.381Z,10.13
2024-05-09T01:19:46.780Z,10.10
2024-05-09T01:22:13.807Z,10.40
2024-05-09T01:24:40.616Z,10.75
2024-05-09T01:27:07.433Z,10.07
2024-05-09T01:29:34.429Z,10.45
2024-05-09T01:32:01.438Z,9.98
2024-05-09T01:34:28.233Z,10.40
2024-05-09T01:36:55.112Z,10.43
2024-05-09T01:39:22.330Z,10.65
2024-05-09T01:41:49.211Z,10.98
2024-05-09T01:44:15.929Z,10.43
2024-05-09T01:46:42.987Z,10.13
2024-05-09T01:49:09.873Z,10.18
2024-05-09T01:51:36.854Z,10.40
2024-05-09T01:54:03.854Z,11.00
2024-05-09T01:56:30.894Z,9.82
2024-05-09T01:58:57.828Z,10.80
2024-05-09T02:01:25.000Z,10.52
2024-05-09T02:03:51.947Z,10.68
2024-05-09T02:06:18.898Z,10.70
2024-05-09T02:08:46.234Z,10.35
2024-05-09T02:11:13.062Z,11.00
2024-05-09T02:13:41.402Z,11.20
2024-05-09T02:16:14.625Z,10.93
2024-05-09T02:18:41.945Z,10.48
2024-05-09T02:21:09.262Z,10.93
2024-05-09T02:23:36.187Z,10.07
2024-05-09T02:26:03.226Z,10.75
2024-05-09T02:28:30.112Z,11.77
2024-05-09T02:30:56.829Z,11.93
2024-05-09T02:33:24.228Z,11.20
2024-05-09T02:35:51.098Z,10.80
2024-05-09T02:38:17.874Z,10.45
2024-05-09T02:40:44.885Z,10.90
2024-05-09T02:43:12.763Z,11.25
2024-05-09T02:45:40.637Z,10.98
2024-05-09T02:48:10.869Z,11.18
2024-05-09T02:50:40.805Z,10.37
2024-05-09T02:53:09.319Z,10.18
2024-05-09T02:55:38.003Z,9.85
2024-05-09T02:58:07.271Z,9.20
2024-05-09T03:00:39.022Z,9.57
2024-05-09T03:03:11.000Z,10.32
2024-05-09T03:05:40.726Z,9.93
2024-05-09T03:08:07.916Z,9.15
2024-05-09T03:10:37.268Z,8.70
2024-05-09T03:13:07.382Z,9.60
2024-05-09T03:15:34.371Z,9.95
2024-05-09T03:18:01.891Z,9.73
2024-05-09T03:20:34.040Z,10.65
2024-05-09T03:23:03.091Z,9.13
2024-05-09T03:25:29.965Z,9.55
2024-05-09T03:27:56.915Z,9.40
2024-05-09T03:30:38.620Z,9.35
2024-05-09T03:33:15.431Z,9.40
2024-05-09T03:35:44.056Z,11.90
2024-05-09T03:38:11.155Z,9.80
2024-05-09T03:40:48.031Z,10.80
2024-05-09T03:43:15.960Z,9.95
2024-05-09T03:45:43.836Z,11.25
2024-05-09T03:48:11.058Z,10.30
2024-05-09T03:50:38.311Z,12.05
2024-05-09T03:53:06.149Z,10.73
2024-05-09T03:55:33.335Z,11.48
2024-05-09T03:58:00.339Z,10.85
2024-05-09T04:00:35.472Z,11.45
2024-05-09T04:03:10.755Z,10.55
2024-05-09T04:05:44.608Z,11.15
2024-05-09T04:08:12.763Z,10.75
2024-05-09T04:10:40.966Z,11.85
2024-05-09T04:13:08.136Z,11.07
2024-05-09T04:15:35.411Z,12.82
2024-05-09T04:18:02.817Z,11.30
2024-05-09T04:20:37.816Z,11.63
2024-05-09T04:23:10.868Z,10.65
2024-05-09T04:25:38.347Z,11.63
2024-05-09T04:28:05.706Z,11.40
2024-05-09T04:30:38.397Z,10.98
2024-05-09T04:33:10.590Z,11.50
2024-05-09T04:35:39.479Z,11.35
2024-05-09T04:38:06.730Z,12.07
2024-05-09T04:40:36.333Z,11.95
2024-05-09T04:43:14.478Z,12.90
2024-05-09T04:45:41.733Z,11.63
2024-05-09T04:48:08.809Z,11.05
2024-05-09T04:50:38.766Z,12.45
2024-05-09T04:53:09.419Z,12.50
2024-05-09T04:55:38.106Z,11.25
2024-05-09T04:58:08.476Z,11.48
2024-05-09T05:00:37.994Z,12.52
2024-05-09T05:03:12.796Z,12.07
2024-05-09T05:05:42.778Z,12.70
2024-05-09T05:08:13.795Z,13.23
2024-05-09T05:10:41.494Z,12.60
2024-05-09T05:13:20.778Z,12.82
2024-05-09T05:15:50.827Z,13.20
2024-05-09T05:18:18.278Z,13.68
2024-05-09T05:20:45.739Z,13.02
2024-05-09T05:23:14.347Z,13.23
2024-05-09T05:25:42.119Z,14.20
2024-05-09T05:28:09.156Z,13.50
2024-05-09T05:30:37.659Z,12.63
2024-05-09T05:33:06.029Z,13.35
2024-05-09T05:35:33.961Z,13.13
2024-05-09T05:38:01.323Z,13.73
2024-05-09T05:40:35.935Z,13.10
2024-05-09T05:43:09.452Z,13.20
2024-05-09T05:45:36.665Z,14.10
2024-05-09T05:48:06.061Z,13.73
2024-05-09T05:50:36.675Z,14.40
2024-05-09T05:53:09.254Z,15.70
2024-05-09T05:55:37.822Z,13.98
2024-05-09T05:58:05.163Z,12.45
2024-05-09T06:00:38.429Z,13.55
2024-05-09T06:03:08.957Z,12.00
2024-05-09T06:05:36.855Z,12.82
2024-05-09T06:08:04.209Z,13.48
2024-05-09T06:10:37.966Z,12.13
2024-05-09T06:13:08.115Z,12.80
2024-05-09T06:15:35.170Z,12.25
2024-05-09T06:18:05.768Z,11.40
2024-05-09T06:20:36.464Z,12.88
2024-05-09T06:23:09.634Z,11.52
2024-05-09T06:25:37.441Z,13.75
2024-05-09T06:28:04.845Z,12.20
2024-05-09T06:30:38.866Z,10.70
2024-05-09T06:33:10.126Z,11.75
2024-05-09T06:35:38.546Z,11.27
2024-05-09T06:38:09.545Z,10.45
2024-05-09T06:40:41.142Z,11.07
2024-05-09T06:43:13.708Z,10.07
2024-05-09T06:45:40.941Z,10.50
2024-05-09T06:48:09.191Z,11.40
2024-05-09T06:50:38.498Z,11.70
2024-05-09T06:53:07.338Z,11.05
2024-05-09T06:55:34.566Z,10.20
2024-05-09T06:58:01.594Z,10.20
2024-05-09T07:00:35.695Z,9.63
2024-05-09T07:03:18.202Z,10.77
2024-05-09T07:05:47.816Z,10.07
2024-05-09T07:08:16.399Z,10.27
2024-05-09T08:05:32.302Z,8.45
2024-05-09T08:07:59.327Z,8.30
2024-05-09T08:10:29.002Z,8.00
2024-05-09T08:12:57.333Z,8.68
2024-05-09T08:15:24.324Z,8.10
2024-05-09T08:17:51.081Z,7.53
2024-05-09T08:20:26.656Z,7.63
2024-05-09T08:22:57.736Z,7.63
2024-05-09T08:25:25.520Z,7.03
2024-05-09T08:27:52.474Z,6.38
2024-05-09T08:30:25.289Z,7.45
2024-05-09T08:32:59.501Z,6.05
2024-05-09T08:35:26.601Z,7.53
2024-05-09T08:37:53.666Z,7.07
2024-05-09T08:40:30.462Z,7.55
2024-05-09T08:43:03.082Z,7.18
2024-05-09T08:45:31.430Z,7.57
2024-05-09T08:48:01.362Z,6.85
2024-05-09T08:50:35.942Z,6.10
2024-05-09T08:53:06.189Z,6.18
2024-05-09T08:55:32.945Z,6.43
2024-05-09T08:58:03.692Z,6.03
2024-05-09T09:00:36.836Z,5.43
2024-05-09T09:03:09.409Z,7.05
2024-05-09T09:05:40.064Z,6.57
2024-05-09T09:08:08.693Z,6.78
2024-05-09T09:10:38.704Z,7.10
2024-05-09T09:13:09.771Z,7.07
2024-05-09T09:15:50.653Z,6.20
2024-05-09T09:18:18.682Z,5.65
2024-05-09T09:20:46.633Z,5.40
2024-05-09T09:23:14.206Z,5.40
2024-05-09T09:25:41.212Z,5.28
2024-05-09T09:30:03.658Z,5.50
2024-05-09T09:32:31.649Z,5.05
2024-05-09T09:34:58.396Z,4.82
2024-05-09T09:37:32.727Z,5.65
2024-05-09T09:39:59.812Z,4.82
2024-05-09T09:42:30.870Z,4.90
2024-05-09T09:45:04.609Z,4.97
2024-05-09T09:47:35.077Z,4.63
2024-05-09T09:50:07.063Z,4.75
2024-05-09T09:52:36.878Z,4.63
2024-05-09T09:55:04.929Z,4.63
2024-05-09T09:57:34.569Z,5.07
2024-05-09T10:00:01.536Z,5.03
2024-05-09T10:02:42.400Z,4.55
2024-05-09T10:05:09.917Z,4.30
2024-05-09T10:07:57.584Z,4.55
2024-05-09T10:10:31.899Z,3.88
2024-05-09T10:13:01.238Z,3.97
2024-05-09T10:15:28.434Z,3.97
2024-05-09T10:18:05.231Z,4.65
2024-05-09T10:20:45.875Z,4.75
2024-05-09T10:23:24.813Z,6.13
2024-05-09T10:26:05.934Z,3.42
2024-05-09T10:31:11.843Z,3.78
2024-05-09T10:33:45.112Z,4.20
2024-05-09T10:36:12.887Z,3.88
2024-05-09T10:38:42.173Z,4.75
2024-05-09T10:41:10.447Z,4.45
2024-05-09T10:43:39.843Z,3.63
2024-05-09T10:46:07.498Z,4.10
2024-05-09T10:48:35.770Z,3.88
2024-05-09T10:51:03.523Z,4.15
2024-05-09T10:53:31.838Z,3.88
2024-05-09T10:55:59.643Z,5.03
2024-05-09T10:58:27.498Z,4.22
2024-05-09T11:00:57.954Z,4.03
2024-05-09T11:03:26.112Z,3.63
2024-05-09T11:05:53.733Z,4.45
2024-05-09T11:08:24.383Z,4.00
2024-05-09T11:10:52.848Z,4.90
2024-05-09T11:13:32.890Z,4.55
2024-05-09T11:16:00.999Z,3.90
2024-05-09T11:18:33.245Z,4.18
2024-05-09T11:21:03.189Z,4.03
2024-05-09T11:23:30.882Z,4.13
2024-05-09T11:25:58.869Z,3.65
2024-05-09T11:28:28.568Z,4.07
2024-05-09T11:31:08.550Z,3.83
2024-05-09T11:33:41.191Z,3.83
2024-05-09T11:36:09.446Z,3.90
2024-05-09T11:38:36.404Z,4.25
2024-05-09T11:41:04.828Z,3.95
2024-05-09T11:43:32.074Z,4.28
2024-05-09T11:45:59.940Z,4.07
2024-05-09T11:48:27.144Z,3.85
2024-05-09T11:50:55.530Z,3.95
2024-05-09T11:53:22.778Z,4.20
2024-05-09T11:55:49.885Z,4.38
2024-05-09T11:58:18.238Z,3.90
2024-05-09T12:00:46.265Z,4.72
2024-05-09T12:03:13.625Z,3.88
2024-05-09T12:05:40.814Z,4.43
2024-05-09T12:08:07.927Z,4.63
2024-05-09T12:10:36.326Z,4.30
2024-05-09T12:13:06.014Z,3.55
2024-05-09T12:15:37.736Z,4.00
2024-05-09T12:18:07.160Z,3.90
2024-05-09T12:20:37.887Z,4.05
2024-05-09T12:23:08.249Z,3.53
2024-05-09T12:25:36.485Z,3.53
2024-05-09T12:28:04.134Z,3.70
2024-05-09T12:30:36.874Z,3.33
2024-05-09T12:33:12.222Z,3.72
2024-05-09T12:35:40.204Z,3.13
2024-05-09T12:38:07.197Z,3.00
2024-05-09T12:40:37.393Z,3.22
2024-05-09T12:43:10.348Z,3.30
2024-05-09T12:45:38.723Z,2.70
2024-05-09T12:48:08.413Z,3.40
2024-05-09T12:50:36.326Z,3.33
2024-05-09T12:53:04.574Z,2.75
2024-05-09T12:55:43.908Z,2.55
2024-05-09T12:58:17.550Z,2.65
2024-05-09T13:00:45.261Z,2.92
2024-05-09T13:03:12.972Z,3.17
2024-05-09T13:05:41.523Z,2.97
2024-05-09T13:08:09.195Z,3.15
2024-05-09T13:10:36.383Z,2.70
2024-05-09T13:13:03.512Z,3.47
2024-05-09T13:15:31.570Z,2.97
2024-05-09T13:18:02.235Z,2.95
2024-05-09T13:20:33.787Z,2.72
2024-05-09T13:23:04.950Z,2.75
2024-05-09T13:25:34.183Z,2.95
2024-05-09T13:28:01.149Z,3.83
2024-05-09T13:30:37.380Z,3.28
2024-05-09T13:33:12.806Z,2.42
2024-05-09T13:35:47.486Z,3.50
2024-05-09T13:38:18.763Z,3.38
2024-05-09T13:40:45.892Z,3.33
2024-05-09T13:43:13.267Z,2.80
2024-05-09T13:45:40.404Z,2.75
2024-05-09T13:48:09.666Z,2.72
2024-05-09T13:50:37.227Z,2.97
2024-05-09T13:53:06.721Z,2.60
2024-05-09T13:55:37.137Z,2.90
2024-05-09T13:58:04.147Z,3.13
2024-05-09T14:00:42.164Z,3.63
2024-05-09T14:03:15.125Z,2.47
2024-05-09T14:05:43.580Z,2.50
2024-05-09T14:08:11.533Z,2.28
2024-05-09T14:10:44.496Z,2.40
2024-05-09T14:13:12.479Z,2.13
2024-05-09T14:15:39.575Z,2.35
2024-05-09T14:18:10.365Z,2.58
2024-05-09T14:20:39.684Z,2.47
2024-05-09T14:23:06.525Z,2.97
2024-05-09T14:25:37.929Z,2.60
2024-05-09T14:28:07.866Z,2.40
2024-05-09T14:30:37.684Z,2.55
2024-05-09T14:33:06.913Z,2.30
2024-05-09T14:35:34.588Z,2.40
2024-05-09T14:38:02.042Z,2.53
2024-05-09T14:40:38.921Z,2.58
2024-05-09T14:45:37.516Z,2.10
2024-05-09T14:48:05.420Z,2.40
2024-05-09T14:50:36.925Z,3.05
2024-05-09T14:53:07.675Z,2.13
2024-05-09T14:55:37.391Z,2.33
2024-05-09T14:58:09.320Z,2.60
2024-05-09T15:00:47.960Z,2.30
2024-05-09T15:03:19.543Z,2.42
2024-05-09T15:05:47.893Z,2.03
2024-05-09T15:08:17.560Z,2.10
2024-05-09T15:10:44.626Z,1.90
2024-05-09T15:13:13.445Z,2.20
2024-05-09T15:15:42.888Z,1.88
2024-05-09T15:18:09.911Z,1.90
2024-05-09T15:20:37.850Z,1.83
2024-05-09T15:23:06.479Z,2.00
2024-05-09T15:25:35.842Z,2.42
2024-05-09T15:28:04.290Z,2.30
2024-05-09T15:30:33.491Z,2.20
2024-05-09T15:33:05.561Z,1.85
2024-05-09T15:35:33.848Z,1.80
2024-05-09T15:38:03.208Z,1.63
2024-05-09T15:40:37.687Z,1.53
2024-05-09T15:43:09.342Z,2.20
2024-05-09T15:45:37.522Z,1.95
2024-05-09T15:48:05.743Z,2.70
2024-05-09T15:50:38.402Z,2.80
2024-05-09T15:53:09.930Z,2.97
2024-05-09T15:55:37.817Z,2.22
2024-05-09T15:58:06.402Z,2.58
2024-05-09T16:00:38.648Z,2.78
2024-05-09T16:03:09.738Z,2.80
2024-05-09T16:05:37.592Z,2.58
2024-05-09T16:08:05.762Z,2.42
2024-05-09T16:10:34.529Z,2.63
2024-05-09T16:13:02.971Z,2.40
2024-05-09T16:15:30.589Z,2.63
2024-05-09T16:17:57.660Z,3.13
2024-05-09T16:20:34.344Z,2.00
2024-05-09T16:23:06.766Z,2.47
2024-05-09T16:25:33.906Z,2.10
2024-05-09T16:28:01.605Z,2.22
2024-05-09T16:30:34.536Z,1.92
2024-05-09T16:33:04.604Z,2.08
2024-05-09T16:35:32.162Z,2.15
2024-05-09T16:37:59.206Z,2.28
2024-05-09T16:40:34.641Z,1.98
2024-05-09T16:43:06.337Z,2.03
2024-05-09T16:45:33.716Z,1.80
2024-05-09T16:48:01.628Z,2.40
2024-05-09T16:50:33.458Z,3.40
2024-05-09T16:53:06.183Z,2.20
2024-05-09T16:55:34.026Z,1.88
2024-05-09T16:58:01.880Z,2.22
2024-05-09T17:00:39.354Z,2.50
2024-05-09T17:03:11.539Z,2.15
2024-05-09T17:05:40.246Z,2.00
2024-05-09T17:08:07.918Z,2.30
2024-05-09T17:10:36.606Z,1.90
2024-05-09T17:13:05.493Z,1.77
2024-05-09T17:15:34.158Z,1.83
2024-05-09T17:18:01.641Z,1.73
2024-05-09T17:20:33.518Z,2.03
2024-05-09T17:23:05.143Z,2.10
2024-05-09T17:25:32.721Z,1.75
2024-05-09T17:28:06.262Z,2.00
2024-05-09T17:30:36.663Z,1.83
2024-05-09T17:33:06.866Z,2.03
2024-05-09T17:35:34.616Z,2.20
2024-05-09T17:38:01.991Z,2.63
2024-05-09T17:40:33.632Z,2.05
2024-05-09T17:43:04.273Z,2.05
2024-05-09T17:45:32.311Z,2.10
2024-05-09T17:47:59.860Z,2.05
2024-05-09T17:50:34.986Z,1.80
2024-05-09T17:53:08.224Z,1.90
2024-05-09T17:55:35.750Z,1.80
2024-05-09T17:58:04.260Z,1.95
2024-05-09T18:00:38.344Z,2.55
2024-05-09T18:03:10.498Z,1.92
2024-05-09T18:05:38.175Z,1.90
2024-05-09T18:08:06.817Z,1.88
2024-05-09T18:10:37.910Z,2.60
2024-05-09T18:13:08.805Z,1.92
2024-05-09T18:15:36.257Z,2.15
2024-05-09T18:18:03.953Z,2.13
2024-05-09T18:20:40.207Z,2.20
2024-05-09T18:23:13.358Z,2.38
2024-05-09T18:25:40.610Z,1.63
2024-05-09T18:28:08.064Z,2.25
2024-05-09T18:30:36.750Z,2.20
2024-05-09T18:33:06.841Z,2.28
2024-05-09T18:35:35.132Z,1.90
2024-05-09T18:38:02.207Z,2.40
2024-05-09T18:40:34.299Z,2.45
2024-05-09T18:43:05.655Z,2.42
2024-05-09T18:45:34.044Z,2.50
2024-05-09T18:48:01.288Z,2.00
2024-05-09T18:50:34.639Z,2.60
2024-05-09T18:53:10.396Z,2.33
2024-05-09T18:55:38.121Z,2.40
2024-05-09T18:58:05.372Z,2.13
2024-05-09T19:00:36.304Z,1.80
2024-05-09T19:03:12.247Z,2.38
2024-05-09T19:05:42.378Z,2.30
2024-05-09T19:08:10.311Z,2.15
2024-05-09T19:10:39.138Z,2.03
2024-05-09T19:13:10.838Z,2.20
2024-05-09T19:15:41.110Z,2.15
2024-05-09T19:18:09.610Z,2.70
2024-05-09T19:20:37.413Z,2.33
2024-05-09T19:23:06.455Z,1.98
2024-05-09T19:25:34.718Z,2.22
2024-05-09T19:28:01.891Z,2.25
2024-05-09T19:30:37.269Z,2.20
2024-05-09T19:33:09.421Z,2.17
2024-05-09T19:35:36.877Z,1.98
2024-05-09T19:38:04.129Z,2.13
2024-05-09T19:40:33.289Z,2.33
2024-05-09T19:43:02.655Z,2.17
2024-05-09T19:45:30.224Z,2.28
2024-05-09T19:47:57.342Z,2.22
2024-05-09T19:50:32.470Z,2.00
2024-05-09T19:53:07.537Z,2.60
2024-05-09T19:55:34.947Z,2.45
2024-05-09T19:58:04.903Z,2.00
2024-05-09T20:00:38.530Z,3.13
2024-05-09T20:03:08.086Z,2.28
2024-05-09T20:05:35.451Z,2.80
2024-05-09T20:08:02.929Z,2.85
2024-05-09T20:10:32.823Z,2.42
2024-05-09T20:13:02.479Z,2.38
2024-05-09T20:15:29.500Z,3.08
2024-05-09T20:17:56.906Z,2.42
2024-05-09T20:20:33.019Z,2.30
2024-05-09T20:23:06.147Z,2.20
2024-05-09T20:25:33.184Z,2.78
2024-05-09T20:28:00.229Z,2.75
2024-05-09T20:30:32.191Z,2.95
2024-05-09T20:33:03.581Z,2.70
2024-05-09T20:35:34.146Z,2.70
2024-05-09T20:38:02.677Z,3.22
2024-05-09T20:40:34.394Z,3.00
2024-05-09T20:43:05.688Z,3.35
2024-05-09T20:45:33.188Z,3.35
2024-05-09T20:48:00.541Z,2.97
2024-05-09T20:50:36.755Z,2.80
2024-05-09T20:53:13.113Z,2.40
2024-05-09T20:55:41.260Z,2.67
2024-05-09T20:58:09.696Z,2.67
2024-05-09T21:00:40.768Z,2.50
2024-05-09T21:03:11.646Z,2.38
2024-05-09T21:05:39.609Z,2.63
2024-05-09T21:08:07.231Z,2.92
2024-05-09T21:10:35.250Z,3.10
2024-05-09T21:13:03.583Z,2.97
2024-05-09T21:15:31.686Z,2.92
2024-05-09T21:17:58.981Z,2.88
2024-05-09T21:20:31.169Z,2.60
2024-05-09T21:23:00.188Z,2.70
2024-05-09T21:25:26.937Z,2.90
2024-05-09T21:27:53.946Z,2.92
2024-05-09T21:30:31.989Z,2.58
2024-05-09T21:33:13.163Z,3.28
2024-05-09T21:35:42.346Z,2.95
2024-05-09T21:38:09.542Z,3.25
2024-05-09T21:40:38.006Z,3.30
2024-05-09T21:43:07.170Z,2.85
2024-05-09T21:45:34.822Z,2.78
2024-05-09T21:48:06.437Z,3.00
2024-05-09T21:50:39.928Z,3.13
2024-05-09T21:53:09.843Z,3.28
2024-05-09T21:55:36.610Z,2.72
2024-05-09T21:58:03.840Z,2.88
2024-05-09T22:00:36.632Z,2.70
2024-05-09T22:03:07.748Z,3.78
2024-05-09T22:05:35.863Z,3.95
2024-05-09T22:08:03.208Z,3.65
2024-05-09T22:10:34.576Z,3.03
2024-05-09T22:13:04.713Z,3.65
2024-05-09T22:15:35.942Z,3.20
2024-05-09T22:20:36.845Z,3.38
2024-05-09T22:23:06.084Z,3.42
2024-05-09T22:25:33.168Z,3.10
2024-05-09T22:28:01.372Z,3.70
2024-05-09T22:30:35.696Z,3.47
2024-05-09T22:33:07.210Z,2.85
2024-05-09T22:35:34.275Z,3.50
2024-05-09T22:38:03.174Z,2.85
2024-05-09T22:40:38.930Z,3.38
2024-05-09T22:43:17.879Z,2.72
2024-05-09T22:45:45.076Z,2.97
2024-05-09T22:48:11.969Z,3.67
2024-05-09T22:50:39.047Z,3.08
2024-05-09T22:53:05.789Z,3.08
2024-05-09T22:55:32.658Z,2.97
2024-05-09T22:57:59.602Z,2.80
2024-05-09T23:00:31.598Z,3.00
2024-05-09T23:03:00.507Z,3.05
2024-05-09T23:05:27.799Z,2.88
2024-05-09T23:07:54.550Z,2.92
2024-05-09T23:10:28.320Z,3.30
2024-05-09T23:13:01.880Z,2.95
2024-05-09T23:15:29.477Z,2.97
2024-05-09T23:17:57.333Z,3.05
2024-05-09T23:22:54.256Z,3.30
2024-05-09T23:25:21.116Z,2.92
2024-05-09T23:27:48.034Z,3.10
2024-05-09T23:30:25.558Z,3.20
2024-05-09T23:32:59.997Z,3.15
2024-05-09T23:35:26.806Z,3.47
2024-05-09T23:37:53.681Z,2.90
2024-05-09T23:40:23.328Z,2.88
2024-05-09T23:42:50.746Z,2.80
2024-05-09T23:45:17.497Z,3.05
2024-05-09T23:47:44.413Z,2.80
2024-05-09T23:50:16.882Z,3.83
2024-05-09T23:52:50.756Z,3.83
2024-05-09T23:55:17.855Z,4.00
2024-05-09T23:57:45.244Z,4.18
